Time;durP1;ratioP1;P1;durP2;ratioP2;P2;SDS_P1;SDS_P2;PMS_P1;PMS_P2;Temp;Humidity;BMP_temperature;BMP_pressure;BME280_temperature;BME280_humidity;BME280_pressure;Samples;Min_cycle;Max_cycle;Signal;HPM_P1;HPM_P2
2022/08/04 00:02:05;;;;;;;6.38;4.00;;;;;;;21.85;82.34;69205.28;4991389;28;20038;-78
2022/08/04 00:04:31;;;;;;;7.18;3.90;;;;;;;21.93;81.03;69208.44;4960916;28;20049;-79
2022/08/04 00:07:13;;;;;;;7.43;3.80;;;;;;;21.96;80.74;69217.88;5010542;28;20042;-78
2022/08/04 00:09:58;;;;;;;9.18;4.35;;;;;;;;;;5007782;28;20038;-79
2022/08/04 00:12:24;;;;;;;6.25;3.95;;;;;;;;;;5011175;28;20239;-79
2022/08/04 00:14:51;;;;;;;7.20;4.40;;;;;;;;;;5009799;28;20095;-79
2022/08/04 00:17:19;;;;;;;8.02;4.43;;;;;;;;;;5010751;28;20030;-79
2022/08/04 00:19:47;;;;;;;8.07;4.57;;;;;;;22.00;80.21;69213.75;5008510;28;20118;-79
2022/08/04 00:22:16;;;;;;;8.18;4.15;;;;;;;21.99;79.79;69215.88;5012151;28;20124;-78
2022/08/04 00:24:43;;;;;;;13.02;4.40;;;;;;;22.01;80.29;69217.59;5009788;28;20045;-79
2022/08/04 00:27:09;;;;;;;8.13;3.95;;;;;;;;;;5008742;28;20030;-79
2022/08/04 00:29:36;;;;;;;7.75;4.07;;;;;;;;;;5011544;28;20079;-79
2022/08/04 00:32:02;;;;;;;7.07;4.05;;;;;;;;;;5006960;28;20044;-78
2022/08/04 00:34:30;;;;;;;9.10;4.85;;;;;;;22.00;79.84;69217.03;5009694;28;20046;-79
2022/08/04 00:36:57;;;;;;;6.80;3.97;;;;;;;22.01;79.69;69223.00;5003854;28;20048;-78
2022/08/04 00:39:23;;;;;;;7.07;3.72;;;;;;;22.03;78.93;69225.31;5009334;28;20053;-79
2022/08/04 00:42:03;;;;;;;6.80;4.00;;;;;;;22.07;78.71;69224.47;5009393;28;20096;-78
2022/08/04 00:44:45;;;;;;;8.00;3.72;;;;;;;22.03;78.57;69220.44;5010447;28;20053;-79
2022/08/04 00:47:29;;;;;;;6.78;3.72;;;;;;;22.03;78.80;69225.88;5008540;28;20128;-79
2022/08/04 00:50:04;;;;;;;8.93;4.00;;;;;;;22.03;78.41;69220.44;5006430;28;20196;-79
2022/08/04 00:52:44;;;;;;;9.27;3.95;;;;;;;22.03;77.91;69225.88;5005193;28;20049;-78
2022/08/04 00:55:27;;;;;;;7.38;3.90;;;;;;;22.01;78.07;69217.59;5009134;28;21672;-78
2022/08/04 00:58:02;;;;;;;9.68;3.95;;;;;;;;;;5009386;28;20042;-78
2022/08/04 01:00:43;;;;;;;4.95;3.70;;;;;;;21.94;78.82;69210.16;5004095;28;20052;-78
2022/08/04 01:03:13;;;;;;;9.10;3.97;;;;;;;;;;5006508;28;20525;-78
2022/08/04 01:05:41;;;;;;;5.70;3.67;;;;;;;;;;5008977;28;20533;-78
2022/08/04 01:08:28;;;;;;;9.70;4.23;;;;;;;21.81;79.15;69204.00;5009213;28;20041;-79
2022/08/04 01:11:03;;;;;;;6.70;3.50;;;;;;;21.75;78.92;69193.81;5008895;28;20408;-79
2022/08/04 01:13:44;;;;;;;8.80;3.75;;;;;;;21.71;78.77;69189.81;5009157;28;20048;-78
2022/08/04 01:16:13;;;;;;;7.22;3.45;;;;;;;21.75;78.67;69189.00;5009086;28;20108;-78
2022/08/04 01:18:44;;;;;;;9.35;3.90;;;;;;;21.69;78.99;69178.84;5008915;28;20064;-79
2022/08/04 01:21:28;;;;;;;8.85;3.55;;;;;;;21.69;78.86;69182.09;5008946;28;20046;-78
2022/08/04 01:24:36;;;;;;;8.07;3.90;;;;;;;21.64;79.58;69176.41;5008516;28;20067;-79
2022/08/04 01:27:08;;;;;;;11.13;4.05;;;;;;;21.61;79.50;69172.97;5007582;28;20042;-79
2022/08/04 01:29:39;;;;;;;8.82;4.25;;;;;;;21.61;79.28;69184.38;5007073;28;20042;-79
2022/08/04 01:32:18;;;;;;;10.18;3.75;;;;;;;21.56;79.86;69172.66;5009243;28;20042;-79
2022/08/04 01:34:50;;;;;;;9.82;4.35;;;;;;;21.57;79.28;69174.38;5009000;28;20046;-79
2022/08/04 01:37:34;;;;;;;8.13;3.72;;;;;;;;;;5007278;28;20038;-78
2022/08/04 01:40:04;;;;;;;7.78;3.42;;;;;;;21.54;79.37;69165.50;5007382;28;20045;-78
2022/08/04 01:42:32;;;;;;;6.93;3.88;;;;;;;21.54;78.88;69165.50;5003465;28;20898;-78
2022/08/04 01:45:01;;;;;;;10.38;4.38;;;;;;;21.49;79.93;69165.22;5006855;28;20437;-78
2022/08/04 01:47:28;;;;;;;8.57;3.60;;;;;;;;;;5006702;28;20048;-78
2022/08/04 01:49:53;;;;;;;7.50;3.55;;;;;;;;;;5003445;28;20120;-78
2022/08/04 01:52:19;;;;;;;9.05;3.60;;;;;;;;;;5002523;28;20088;-78
2022/08/04 01:54:45;;;;;;;8.18;3.83;;;;;;;;;;5004418;28;20045;-78
2022/08/04 01:57:11;;;;;;;7.97;3.88;;;;;;;21.60;78.82;69177.22;5006226;28;20046;-78
2022/08/04 01:59:37;;;;;;;8.73;3.95;;;;;;;;;;5010870;28;20041;-78
2022/08/04 02:02:03;;;;;;;9.32;3.50;;;;;;;;;;5005416;28;20092;-78
2022/08/04 02:04:28;;;;;;;6.68;3.42;;;;;;;21.65;78.14;69176.97;5003662;28;20054;-78
2022/08/04 02:07:15;;;;;;;8.50;3.85;;;;;;;21.67;77.85;69185.25;5006100;28;20044;-78
2022/08/04 02:09:46;;;;;;;7.10;3.75;;;;;;;;;;5004692;28;20480;-78
2022/08/04 02:12:23;;;;;;;10.50;3.55;;;;;;;;;;5005812;28;20041;-78
2022/08/04 02:14:56;;;;;;;8.32;3.83;;;;;;;;;;5005564;28;20513;-78
2022/08/04 02:17:42;;;;;;;8.93;3.47;;;;;;;21.65;78.02;69182.38;5005352;28;20050;-78
2022/08/04 02:20:28;;;;;;;9.43;3.42;;;;;;;21.65;77.97;69182.97;4993013;28;20127;-78
2022/08/04 02:23:04;;;;;;;11.27;3.60;;;;;;;21.64;78.06;69176.41;5007943;28;20457;-78
2022/08/04 02:25:37;;;;;;;9.38;3.67;;;;;;;21.69;77.48;69187.53;5005008;28;20046;-78
2022/08/04 02:28:12;;;;;;;8.25;4.35;;;;;;;21.72;76.89;69190.97;5007628;28;20133;-78
2022/08/04 02:30:54;;;;;;;8.35;3.40;;;;;;;;;;5003203;28;20057;-78
2022/08/04 02:33:23;;;;;;;9.27;3.65;;;;;;;;;;5005884;28;20049;-78
2022/08/04 02:35:56;;;;;;;9.35;3.40;;;;;;;21.80;76.92;69199.56;5006693;28;20046;-78
2022/08/04 02:38:47;;;;;;;8.68;3.35;;;;;;;;;;5006024;28;20049;-77
2022/08/04 02:41:14;;;;;;;8.00;3.08;;;;;;;;;;5002763;28;20045;-77
2022/08/04 02:43:40;;;;;;;7.75;3.20;;;;;;;;;;5006098;28;20095;-77
2022/08/04 02:46:06;;;;;;;7.55;3.08;;;;;;;21.80;76.55;69194.69;5005421;28;20041;-78
2022/08/04 02:48:33;;;;;;;10.23;3.03;;;;;;;21.83;76.53;69202.97;4994709;28;20049;-78
2022/08/04 02:51:02;;;;;;;8.40;3.17;;;;;;;21.78;76.60;69192.44;5007240;28;20034;-78
2022/08/04 02:53:29;;;;;;;7.55;3.10;;;;;;;21.79;76.64;69193.00;5005382;28;20402;-78
2022/08/04 02:55:57;;;;;;;7.82;3.40;;;;;;;21.80;76.30;69199.56;5004403;28;20051;-77
2022/08/04 02:58:24;;;;;;;10.93;3.15;;;;;;;21.81;76.39;69195.28;4986399;28;20076;-77
2022/08/04 03:00:50;;;;;;;10.38;3.17;;;;;;;;;;5006723;28;20709;-77
2022/08/04 03:03:23;;;;;;;12.70;3.35;;;;;;;;;;5006296;28;20049;-78
2022/08/04 03:06:00;;;;;;;8.80;3.42;;;;;;;;;;4997209;28;20521;-78
2022/08/04 03:08:45;;;;;;;10.27;3.17;;;;;;;21.82;76.42;69197.00;5003196;28;20686;-77
2022/08/04 03:11:29;;;;;;;8.98;3.35;;;;;;;;;;5004567;28;20057;-77
2022/08/04 03:14:09;;;;;;;8.93;2.95;;;;;;;;;;5006210;28;20064;-77
2022/08/04 03:17:05;;;;;;;12.18;3.10;;;;;;;21.82;76.25;69197.00;5008989;28;20054;-80
2022/08/04 03:19:48;;;;;;;8.25;2.83;;;;;;;;;;5007652;28;20049;-77
2022/08/04 03:22:20;;;;;;;7.70;3.13;;;;;;;21.83;75.94;69198.13;5004624;28;20050;-77
2022/08/04 03:25:14;;;;;;;8.90;3.00;;;;;;;21.87;75.93;69207.56;5006077;28;20472;-78
2022/08/04 03:28:22;;;;;;;9.60;3.13;;;;;;;21.79;76.95;69193.00;5003943;28;20077;-78
2022/08/04 03:31:16;;;;;;;12.02;3.22;;;;;;;21.79;76.49;69198.41;4986964;28;20107;-77
2022/08/04 03:34:10;;;;;;;11.73;3.33;;;;;;;21.76;76.70;69190.13;5009326;28;20461;-78
2022/08/04 03:36:47;;;;;;;10.18;3.17;;;;;;;21.77;76.67;69191.25;4989055;28;20056;-78
2022/08/04 03:39:59;;;;;;;9.80;3.35;;;;;;;21.76;76.98;69194.97;5010744;28;20038;-78
2022/08/04 03:42:33;;;;;;;12.70;3.28;;;;;;;;;;5002090;28;20070;-79
2022/08/04 03:45:01;;;;;;;8.50;3.13;;;;;;;21.81;76.55;69195.84;5008498;28;20034;-79
2022/08/04 03:47:33;;;;;;;8.85;3.55;;;;;;;;;;5008453;28;20053;-78
2022/08/04 03:50:21;;;;;;;10.65;3.25;;;;;;;21.88;76.25;69208.16;5008804;28;20037;-78
2022/08/04 03:53:08;;;;;;;8.73;3.70;;;;;;;;;;4989465;28;20127;-78
2022/08/04 03:55:45;;;;;;;9.63;3.53;;;;;;;;;;5007712;28;20041;-78
2022/08/04 03:58:16;;;;;;;14.80;3.53;;;;;;;21.89;76.33;69209.28;5008724;28;20065;-78
2022/08/04 04:00:47;;;;;;;14.82;3.83;;;;;;;;;;5009339;28;20056;-78
2022/08/04 04:03:31;;;;;;;10.27;3.30;;;;;;;;;;5008263;28;20085;-78
2022/08/04 04:06:08;;;;;;;11.30;3.70;;;;;;;21.91;75.94;69212.16;5006959;28;20042;-78
2022/08/04 04:08:52;;;;;;;10.93;2.90;;;;;;;;;;5007099;28;20133;-78
2022/08/04 04:11:40;;;;;;;12.38;3.22;;;;;;;21.92;75.59;69207.28;5008796;28;20040;-78
2022/08/04 04:14:28;;;;;;;8.82;2.90;;;;;;;21.92;76.04;69207.84;5009181;28;20096;-78
2022/08/04 04:16:56;;;;;;;12.63;3.50;;;;;;;;;;4989464;28;20081;-78
2022/08/04 04:19:52;;;;;;;10.60;3.75;;;;;;;21.93;76.12;69206.31;5008627;28;20045;-78
2022/08/04 04:22:26;;;;;;;9.75;3.53;;;;;;;21.93;76.14;69213.88;5008430;28;20052;-78
2022/08/04 04:24:58;;;;;;;8.07;3.33;;;;;;;;;;5009204;28;20057;-78
2022/08/04 04:27:47;;;;;;;13.35;3.75;;;;;;;21.94;75.97;69215.00;5005104;28;20041;-78
2022/08/04 04:30:25;;;;;;;9.02;3.28;;;;;;;21.95;76.10;69211.31;5007477;28;20312;-78
2022/08/04 04:32:53;;;;;;;8.82;3.80;;;;;;;;;;5009791;28;20053;-78
2022/08/04 04:35:32;;;;;;;13.00;3.33;;;;;;;21.96;75.88;69217.31;5008820;28;20053;-78
2022/08/04 04:37:57;;;;;;;;;;;;;;;;;;5016656;28;20475;-78
2022/08/04 04:40:29;;;;;;;10.32;3.17;;;;;;;;;;5004006;28;20348;-78
2022/08/04 04:43:29;;;;;;;10.25;3.47;;;;;;;21.85;76.36;69205.84;5006381;28;20067;-79
2022/08/04 04:46:19;;;;;;;9.05;3.20;;;;;;;21.89;76.51;69203.84;4978426;28;20045;-78
2022/08/04 04:48:57;;;;;;;12.68;3.05;;;;;;;21.91;76.34;69214.28;5003300;28;20093;-78
2022/08/04 04:51:32;;;;;;;11.73;3.33;;;;;;;21.92;76.52;69213.28;5008516;28;20046;-78
2022/08/04 04:54:28;;;;;;;10.13;2.80;;;;;;;21.96;76.29;69217.31;5009523;28;20072;-78
2022/08/04 04:56:59;;;;;;;6.95;2.78;;;;;;;;;;4962964;28;20073;-78
2022/08/04 04:59:31;;;;;;;9.30;3.03;;;;;;;22.03;75.92;69228.59;5007590;28;20532;-79
2022/08/04 05:02:15;;;;;;;8.73;3.00;;;;;;;;;;5007625;28;20045;-78
2022/08/04 05:04:50;;;;;;;11.77;3.00;;;;;;;;;;5007038;28;20122;-78
2022/08/04 05:07:24;;;;;;;10.18;2.95;;;;;;;;;;5007130;28;20112;-79
2022/08/04 05:10:18;;;;;;;10.98;2.92;;;;;;;22.19;75.45;69238.22;5007012;28;20041;-79
2022/08/04 05:13:02;;;;;;;10.13;3.10;;;;;;;;;;5009674;28;20100;-79
2022/08/04 05:15:35;;;;;;;9.30;2.92;;;;;;;22.22;75.54;69247.09;5006220;28;20508;-79
2022/08/04 05:18:04;;;;;;;10.35;3.30;;;;;;;22.29;74.90;69249.66;5010620;28;20042;-79
2022/08/04 05:20:44;;;;;;;11.93;3.35;;;;;;;;;;5010783;28;20048;-79
2022/08/04 05:23:12;;;;;;;9.98;2.80;;;;;;;;;;5012311;28;20618;-78
2022/08/04 05:25:43;;;;;;;14.40;3.25;;;;;;;;;;5009169;28;20041;-80
2022/08/04 05:28:13;;;;;;;9.40;3.05;;;;;;;22.51;74.14;69273.72;5008222;28;20047;-80
2022/08/04 05:30:47;;;;;;;15.00;3.47;;;;;;;22.58;74.62;69281.72;5008563;28;21599;-80
2022/08/04 05:33:14;;;;;;;17.48;3.90;;;;;;;;;;5003996;28;20555;-80
2022/08/04 05:35:45;;;;;;;11.80;3.28;;;;;;;22.63;74.47;69286.91;5009393;28;20054;-80
2022/08/04 05:38:14;;;;;;;9.23;3.05;;;;;;;22.65;74.27;69289.75;5005431;28;20066;-80
2022/08/04 05:40:42;;;;;;;12.82;3.60;;;;;;;22.66;74.59;69295.75;5006520;28;20499;-80
2022/08/04 05:43:08;;;;;;;9.30;3.03;;;;;;;22.65;74.46;69289.75;5015821;28;20632;-80
2022/08/04 05:45:34;;;;;;;9.27;2.85;;;;;;;;;;5011876;28;20042;-80
2022/08/04 05:48:05;;;;;;;9.43;3.30;;;;;;;22.68;74.52;69292.63;5015302;28;20045;-80
2022/08/04 05:50:32;;;;;;;10.13;3.20;;;;;;;22.71;74.06;69296.06;5011997;28;20046;-80
2022/08/04 05:52:58;;;;;;;12.05;3.63;;;;;;;22.75;74.30;69301.19;5010613;28;20057;-80
2022/08/04 05:55:24;;;;;;;13.23;4.00;;;;;;;;;;5009517;28;20053;-80
2022/08/04 05:57:49;;;;;;;11.18;3.92;;;;;;;;;;5009688;28;20057;-80
2022/08/04 06:00:16;;;;;;;9.90;3.72;;;;;;;;;;5004366;28;20046;-80
2022/08/04 06:02:43;;;;;;;12.20;3.78;;;;;;;22.87;74.54;69313.81;5011992;28;20560;-81
2022/08/04 06:05:10;;;;;;;15.65;4.00;;;;;;;22.93;74.43;69320.69;5005246;28;20038;-80
2022/08/04 06:07:35;;;;;;;11.52;3.75;;;;;;;;;;5005488;28;20129;-80
2022/08/04 06:10:01;;;;;;;12.50;3.47;;;;;;;;;;5009847;28;20137;-80
2022/08/04 06:12:36;;;;;;;10.75;3.30;;;;;;;23.07;73.60;69342.16;5002653;28;20046;-80
2022/08/04 06:15:02;;;;;;;14.07;3.45;;;;;;;23.13;73.33;69349.06;5007158;28;20045;-80
2022/08/04 06:18:00;;;;;;;12.48;3.50;;;;;;;23.19;73.57;69347.78;4991182;28;20126;-81
2022/08/04 06:20:27;;;;;;;12.68;4.28;;;;;;;;;;5005713;28;20064;-81
2022/08/04 06:22:56;;;;;;;14.80;3.70;;;;;;;23.23;73.22;69351.22;5013365;28;20042;-80
2022/08/04 06:25:23;;;;;;;9.70;3.60;;;;;;;;;;5009768;28;20048;-81
2022/08/04 06:27:50;;;;;;;10.15;3.30;;;;;;;23.41;73.57;69371.84;5010126;28;20038;-81
2022/08/04 06:30:18;;;;;;;11.80;4.07;;;;;;;23.49;73.72;69383.72;5008553;28;20037;-81
2022/08/04 06:32:54;;;;;;;16.90;5.28;;;;;;;23.52;73.72;69392.03;5006426;28;20100;-80
2022/08/04 06:35:20;;;;;;;13.15;4.50;;;;;;;23.58;73.19;69393.47;5003174;28;20030;-80
2022/08/04 06:37:46;;;;;;;13.40;4.68;;;;;;;23.65;73.33;69406.94;4999926;28;20097;-80
2022/08/04 06:40:14;;;;;;;16.02;4.43;;;;;;;23.74;73.26;69411.25;4998001;28;20061;-82
2022/08/04 06:42:40;;;;;;;10.10;4.43;;;;;;;23.81;72.88;69419.84;5008903;28;20049;-81
2022/08/04 06:45:08;;;;;;;13.13;4.55;;;;;;;23.89;73.37;69427.88;5006949;28;20069;-81
2022/08/04 06:47:36;;;;;;;13.35;4.88;;;;;;;;;;5004939;28;20394;-81
2022/08/04 06:50:04;;;;;;;11.45;4.35;;;;;;;24.01;72.42;69450.34;5005708;28;20100;-81
2022/08/04 06:52:30;;;;;;;13.40;4.32;;;;;;;24.10;71.74;69452.50;5005602;28;20042;-81
2022/08/04 06:54:55;;;;;;;9.60;4.07;;;;;;;;;;5006170;28;20152;-81
2022/08/04 06:57:26;;;;;;;11.13;4.75;;;;;;;24.33;71.41;69475.59;5010708;28;20504;-82
2022/08/04 07:00:09;;;;;;;12.02;5.35;;;;;;;24.47;71.60;69493.25;5002215;28;20471;-81
2022/08/04 07:02:45;;;;;;;9.50;5.13;;;;;;;;;;5005297;28;20047;-82
2022/08/04 07:05:11;;;;;;;12.18;5.43;;;;;;;24.77;69.80;69527.06;5018380;28;20053;-81
2022/08/04 07:07:37;;;;;;;12.55;4.43;;;;;;;24.92;68.50;69544.28;5008912;28;20632;-81
2022/08/04 07:10:04;;;;;;;11.18;5.15;;;;;;;25.04;68.10;69557.47;5007160;28;20498;-82
2022/08/04 07:12:31;;;;;;;8.05;4.10;;;;;;;25.13;67.95;69564.50;5008149;28;20101;-81
2022/08/04 07:14:57;;;;;;;11.48;4.15;;;;;;;;;;5007713;28;20046;-81
2022/08/04 07:17:23;;;;;;;6.47;3.08;;;;;;;25.37;66.31;69592.06;5007258;28;20628;-81
2022/08/04 07:19:48;;;;;;;9.38;3.17;;;;;;;25.43;65.81;69601.69;5004014;28;20046;-80
2022/08/04 07:22:15;;;;;;;7.78;3.28;;;;;;;25.52;65.34;69610.84;5007292;28;20093;-82
2022/08/04 07:24:41;;;;;;;7.07;2.90;;;;;;;25.62;63.96;69622.31;5006533;28;20077;-81
2022/08/04 07:27:07;;;;;;;8.00;2.92;;;;;;;25.67;63.54;69628.06;5003532;28;20030;-81
2022/08/04 07:29:36;;;;;;;6.63;2.95;;;;;;;25.77;63.18;69633.50;4999285;28;20111;-80
2022/08/04 07:32:03;;;;;;;8.90;3.25;;;;;;;25.90;63.26;69650.63;5007109;28;20073;-82
2022/08/04 07:34:30;;;;;;;9.10;3.55;;;;;;;25.87;62.10;69651.03;5006773;28;20068;-81
2022/08/04 07:36:58;;;;;;;10.02;3.05;;;;;;;25.95;63.84;69659.66;5007818;28;20052;-81
2022/08/04 07:39:27;;;;;;;9.70;3.50;;;;;;;26.02;63.17;69664.97;5002936;28;20046;-81
2022/08/04 07:41:54;;;;;;;8.95;3.60;;;;;;;26.13;61.18;69677.00;4999420;28;20046;-81
2022/08/04 07:44:20;;;;;;;13.13;3.83;;;;;;;26.13;60.49;69679.75;5004260;28;20030;-81
2022/08/04 07:46:45;;;;;;;10.73;3.95;;;;;;;26.22;61.55;69689.50;5000426;28;20406;-81
2022/08/04 07:49:12;;;;;;;8.10;3.50;;;;;;;26.27;60.86;69695.81;4994110;28;20053;-82
2022/08/04 07:51:38;;;;;;;9.38;4.38;;;;;;;26.34;60.77;69701.13;4988727;28;20497;-81
2022/08/04 07:54:06;;;;;;;7.93;3.80;;;;;;;26.39;59.93;69708.44;5000521;28;20133;-81
2022/08/04 07:56:34;;;;;;;9.60;3.90;;;;;;;26.45;60.14;69712.59;5000573;28;20038;-81
2022/08/04 07:58:59;;;;;;;8.57;3.67;;;;;;;;;;5002734;28;20042;-81
2022/08/04 08:01:25;;;;;;;7.93;3.58;;;;;;;26.70;59.82;69743.47;5001598;28;20553;-82
2022/08/04 08:03:53;;;;;;;9.98;3.97;;;;;;;26.86;61.01;69761.28;5000952;28;20417;-81
2022/08/04 08:06:19;;;;;;;12.85;4.25;;;;;;;26.94;59.24;69770.47;4997077;28;20743;-81
2022/08/04 08:08:44;;;;;;;10.02;4.20;;;;;;;26.99;58.75;69776.22;5004633;28;20046;-81
2022/08/04 08:11:10;;;;;;;10.32;3.75;;;;;;;27.00;58.37;69777.38;4999311;28;20108;-82
2022/08/04 08:13:35;;;;;;;7.65;4.13;;;;;;;27.07;57.86;69785.41;5006389;28;20049;-81
2022/08/04 08:16:01;;;;;;;9.07;3.83;;;;;;;27.09;58.05;69793.16;5011833;28;20038;-82
2022/08/04 08:18:28;;;;;;;11.15;4.25;;;;;;;27.17;57.12;69794.19;5004110;28;20098;-81
2022/08/04 08:20:54;;;;;;;9.10;3.72;;;;;;;27.29;56.70;69809.56;5013051;28;20092;-82
2022/08/04 08:23:19;;;;;;;7.40;3.60;;;;;;;27.43;56.67;69820.19;5012161;28;20034;-81
2022/08/04 08:25:45;;;;;;;9.73;3.63;;;;;;;27.50;55.72;69830.38;5013159;28;20092;-83
2022/08/04 08:28:11;;;;;;;11.18;3.75;;;;;;;27.55;55.95;69836.69;5011096;28;20141;-82
2022/08/04 08:30:36;;;;;;;11.80;3.65;;;;;;;;;;5009101;28;20520;-81
2022/08/04 08:33:08;;;;;;;10.60;3.58;;;;;;;27.80;54.90;69864.31;5007107;28;20159;-81
2022/08/04 08:35:48;;;;;;;9.05;3.40;;;;;;;27.84;55.53;69868.91;5010810;28;20056;-81
2022/08/04 08:38:14;;;;;;;10.32;3.90;;;;;;;;;;5021928;28;20457;-82
2022/08/04 08:41:00;;;;;;;7.72;3.55;;;;;;;27.89;55.32;69871.91;5017701;28;20060;-82
2022/08/04 08:43:31;;;;;;;8.20;2.67;;;;;;;28.08;56.11;69895.91;5003199;28;20080;-82
2022/08/04 08:46:05;;;;;;;10.93;3.70;;;;;;;28.32;55.17;69922.94;5011452;28;20056;-81
2022/08/04 08:48:49;;;;;;;9.68;4.55;;;;;;;28.38;54.42;69932.56;5006434;28;20046;-81
2022/08/04 08:51:17;;;;;;;14.05;4.45;;;;;;;;;;5007949;28;20121;-82
2022/08/04 08:54:15;;;;;;;8.65;4.05;;;;;;;28.41;54.04;69933.28;5008090;28;20042;-82
2022/08/04 08:57:11;;;;;;;11.60;4.38;;;;;;;28.50;53.71;69946.38;5001656;28;20073;-82
2022/08/04 08:59:52;;;;;;;8.82;4.03;;;;;;;28.45;52.94;69934.56;5008222;28;20133;-82
2022/08/04 09:02:48;;;;;;;8.32;3.50;;;;;;;28.46;53.50;69941.78;5002756;28;20034;-82
2022/08/04 09:05:39;;;;;;;10.65;3.80;;;;;;;28.63;54.41;69960.16;5008347;28;20466;-82
2022/08/04 09:08:29;;;;;;;10.95;3.60;;;;;;;28.60;52.60;69956.72;4963167;28;20050;-82
2022/08/04 09:11:02;;;;;;;11.15;3.35;;;;;;;28.67;52.79;69959.88;4998197;28;20058;-82
2022/08/04 09:13:48;;;;;;;11.35;4.13;;;;;;;28.73;53.85;69972.25;5007726;28;20686;-82
2022/08/04 09:16:23;;;;;;;9.25;4.00;;;;;;;28.81;53.61;69980.88;5004478;28;20053;-82
2022/08/04 09:19:07;;;;;;;10.13;3.55;;;;;;;28.98;54.59;70000.44;5002247;28;20080;-81
2022/08/04 09:21:40;;;;;;;10.48;4.05;;;;;;;29.10;54.33;70010.38;5009699;28;20041;-82
2022/08/04 09:24:23;;;;;;;11.15;4.13;;;;;;;29.18;53.39;70022.31;5012436;28;20494;-82
2022/08/04 09:27:02;;;;;;;10.88;3.95;;;;;;;29.35;53.94;70035.81;5007023;28;20450;-82
2022/08/04 09:29:47;;;;;;;7.53;3.50;;;;;;;29.48;53.30;70055.66;5002705;28;20030;-83
2022/08/04 09:32:31;;;;;;;9.38;3.70;;;;;;;29.56;52.93;70062.72;5004937;28;20069;-82
2022/08/04 09:35:06;;;;;;;8.48;4.40;;;;;;;29.65;52.94;70069.75;5008094;28;20052;-82
2022/08/04 09:37:41;;;;;;;9.63;3.92;;;;;;;29.78;51.10;70087.47;5008397;28;20050;-82
2022/08/04 09:40:14;;;;;;;10.75;3.72;;;;;;;29.80;51.69;70087.00;5000914;28;20057;-82
2022/08/04 09:42:51;;;;;;;12.45;3.95;;;;;;;29.73;51.72;70081.16;5005242;28;20078;-81
2022/08/04 09:45:36;;;;;;;11.98;3.83;;;;;;;29.82;52.08;70089.31;4997448;28;20034;-82
2022/08/04 09:48:07;;;;;;;9.35;4.15;;;;;;;29.88;52.08;70098.41;5000577;28;20469;-82
2022/08/04 09:50:42;;;;;;;9.48;4.35;;;;;;;29.93;50.93;70103.59;5003509;28;20076;-81
2022/08/04 09:53:26;;;;;;;11.88;3.83;;;;;;;29.90;50.75;70100.69;5006356;28;20128;-81
2022/08/04 09:56:02;;;;;;;12.13;3.97;;;;;;;29.90;50.40;70098.53;5002884;28;20042;-81
2022/08/04 09:59:00;;;;;;;9.23;4.35;;;;;;;29.88;50.91;70098.41;5006667;28;20042;-82
2022/08/04 10:01:29;;;;;;;10.02;3.83;;;;;;;29.90;50.24;70100.69;5004037;28;20096;-82
2022/08/04 10:03:57;;;;;;;;;;;;;;;30.07;49.82;70123.00;5012730;28;20050;-82
2022/08/04 10:06:46;;;;;;;9.95;4.13;;;;;;;30.11;49.19;70121.53;5008472;28;20729;-82
2022/08/04 10:09:42;;;;;;;10.07;4.20;;;;;;;30.21;49.37;70138.56;5011004;28;20042;-82
2022/08/04 10:12:22;;;;;;;10.98;4.72;;;;;;;30.30;49.14;70145.63;5006625;28;20041;-82
2022/08/04 10:15:13;;;;;;;9.73;4.38;;;;;;;30.39;49.61;70158.16;5008936;28;20050;-82
2022/08/04 10:17:59;;;;;;;9.65;4.13;;;;;;;30.41;48.98;70157.69;5012368;28;20060;-81
2022/08/04 10:20:46;;;;;;;9.73;4.03;;;;;;;30.44;48.86;70161.72;5005733;28;20077;-81
2022/08/04 10:23:26;;;;;;;10.60;4.25;;;;;;;30.67;49.00;70184.88;5007898;28;20057;-83
2022/08/04 10:26:19;;;;;;;8.32;3.13;;;;;;;30.82;47.12;70201.03;5000881;28;20054;-83
2022/08/04 10:28:57;;;;;;;10.82;3.42;;;;;;;30.93;46.46;70213.69;5011886;28;20102;-82
2022/08/04 10:31:27;;;;;;;7.77;3.37;;;;;;;30.97;45.75;70218.88;5009321;28;20084;-82
2022/08/04 10:34:11;;;;;;;10.18;3.67;;;;;;;31.06;46.96;70228.66;4994522;28;20038;-82
2022/08/04 10:36:59;;;;;;;8.55;3.28;;;;;;;31.15;45.31;70239.00;5010681;28;21413;-81
2022/08/04 10:39:35;;;;;;;7.13;2.70;;;;;;;31.13;45.79;70238.88;4997866;28;20041;-83
2022/08/04 10:42:29;;;;;;;8.77;3.33;;;;;;;31.29;44.74;70254.00;5006324;28;20082;-81
2022/08/04 10:45:06;;;;;;;6.43;2.25;;;;;;;31.24;43.93;70248.81;5000345;28;20126;-83
2022/08/04 10:47:37;;;;;;;6.70;2.58;;;;;;;31.32;43.08;70260.19;4998336;28;20853;-82
2022/08/04 10:50:04;;;;;;;7.15;2.53;;;;;;;31.45;43.39;70272.44;5009734;28;20034;-82
2022/08/04 10:52:44;;;;;;;5.97;2.40;;;;;;;31.27;42.96;70251.69;5005927;28;20048;-82
2022/08/04 10:55:26;;;;;;;6.25;3.00;;;;;;;31.42;43.57;70272.31;5000344;28;20046;-82
2022/08/04 10:57:59;;;;;;;7.63;2.53;;;;;;;31.25;42.50;70250.53;4996167;28;20073;-81
2022/08/04 11:00:30;;;;;;;6.15;2.30;;;;;;;31.47;43.73;70277.50;5003811;28;20124;-83
2022/08/04 11:03:18;;;;;;;8.98;2.72;;;;;;;31.47;43.56;70274.75;5009911;28;20037;-83
2022/08/04 11:05:51;;;;;;;5.97;2.42;;;;;;;31.30;43.20;70258.47;5009529;28;20121;-82
2022/08/04 11:08:33;;;;;;;8.40;2.70;;;;;;;31.28;44.08;70255.59;5008152;28;20037;-82
2022/08/04 11:11:01;;;;;;;6.82;2.78;;;;;;;31.36;44.60;70262.06;5003385;28;20049;-83
2022/08/04 11:13:33;;;;;;;8.40;2.70;;;;;;;31.33;44.19;70258.59;5009634;28;20050;-82
2022/08/04 11:16:04;;;;;;;17.25;2.80;;;;;;;31.06;44.78;70228.66;5009302;28;20787;-83
2022/08/04 11:18:47;;;;;;;7.72;3.20;;;;;;;31.19;44.91;70243.63;5000559;28;20042;-82
2022/08/04 11:21:32;;;;;;;9.43;3.05;;;;;;;30.98;45.30;70219.44;5005547;28;20042;-83
2022/08/04 11:24:07;;;;;;;8.50;2.90;;;;;;;30.83;45.47;70202.19;4993713;28;20045;-83
2022/08/04 11:26:56;;;;;;;9.13;2.70;;;;;;;30.72;46.24;70190.63;5004612;28;20061;-82
2022/08/04 11:29:33;;;;;;;8.68;2.90;;;;;;;30.77;46.17;70196.38;5005728;28;20033;-82
2022/08/04 11:32:02;;;;;;;7.43;3.40;;;;;;;30.90;46.68;70210.81;5010580;28;20049;-82
2022/08/04 11:34:29;;;;;;;6.63;2.75;;;;;;;30.84;45.38;70206.63;5001281;28;20707;-83
2022/08/04 11:37:17;;;;;;;7.90;2.83;;;;;;;30.75;45.03;70199.56;5006838;28;20072;-83
2022/08/04 11:39:51;;;;;;;;;;;;;;;30.57;45.22;70176.69;5008117;28;20046;-82
2022/08/04 11:42:26;;;;;;;6.63;2.67;;;;;;;30.35;45.78;70149.19;5004955;28;20025;-82
2022/08/04 11:45:00;;;;;;;9.98;2.67;;;;;;;30.24;45.50;70136.53;5008039;28;20523;-81
2022/08/04 11:47:38;;;;;;;7.97;2.15;;;;;;;30.18;45.35;70129.59;5009663;28;20064;-82
2022/08/04 11:50:19;;;;;;;4.87;2.37;;;;;;;30.11;46.50;70121.53;5012997;28;20180;-81
2022/08/04 11:52:45;;;;;;;8.02;3.00;;;;;;;30.01;47.64;70107.88;5014735;28;20037;-82
2022/08/04 11:55:15;;;;;;;7.90;3.03;;;;;;;29.85;48.28;70098.25;5011860;28;20041;-82
2022/08/04 11:57:42;;;;;;;7.85;2.90;;;;;;;29.58;48.82;70065.00;5014326;28;20198;-81
2022/08/04 12:00:11;;;;;;;10.38;3.33;;;;;;;29.27;50.37;70032.09;5005350;28;20045;-81
2022/08/04 12:02:54;;;;;;;10.95;3.83;;;;;;;28.91;52.97;69991.78;5004977;28;20073;-81
2022/08/04 12:05:26;;;;;;;10.07;4.32;;;;;;;28.60;55.39;69957.31;5010725;28;20046;-82
2022/08/04 12:08:30;;;;;;;11.07;4.85;;;;;;;28.24;57.72;69911.00;5012629;28;20064;-82
2022/08/04 12:11:14;;;;;;;11.68;4.57;;;;;;;27.82;59.65;69869.91;5007118;28;20036;-82
2022/08/04 12:14:01;;;;;;;9.57;4.20;;;;;;;27.59;62.52;69840.72;5005559;28;20776;-81
2022/08/04 12:16:39;;;;;;;10.40;4.95;;;;;;;27.19;66.20;69799.22;5010784;28;20042;-81
2022/08/04 12:19:12;;;;;;;8.80;4.97;;;;;;;;;;5009934;28;20046;-81
2022/08/04 12:21:44;;;;;;;9.48;5.15;;;;;;;26.76;70.37;69750.38;5006254;28;20288;-81
2022/08/04 12:24:19;;;;;;;9.50;5.20;;;;;;;26.78;71.05;69750.50;5010306;28;20104;-82
2022/08/04 12:27:03;;;;;;;10.32;5.60;;;;;;;26.83;71.33;69755.13;5003870;28;20073;-81
2022/08/04 12:29:33;;;;;;;9.38;5.28;;;;;;;26.68;71.36;69741.78;5006865;28;20038;-82
2022/08/04 12:32:20;;;;;;;12.27;5.53;;;;;;;26.54;72.20;69720.81;5011651;28;20401;-82
2022/08/04 12:34:53;;;;;;;8.90;5.45;;;;;;;26.58;73.27;69726.97;5009973;28;20042;-82
2022/08/04 12:37:26;;;;;;;9.82;5.97;;;;;;;;;;5006239;28;20038;-82
2022/08/04 12:39:53;;;;;;;9.98;5.80;;;;;;;26.22;75.54;69687.34;5004237;28;20061;-82
2022/08/04 12:42:26;;;;;;;9.38;5.68;;;;;;;26.15;76.01;69681.44;5010297;28;20519;-82
2022/08/04 12:44:53;;;;;;;10.82;5.70;;;;;;;26.05;76.66;69668.41;5008706;28;20054;-81
2022/08/04 12:47:23;;;;;;;14.90;6.30;;;;;;;25.91;77.14;69655.06;5004556;28;20418;-82